This is the latest recevied weather packets stored in our database for station/object KF5VOI. If no packets are shown the sender has not sent any weather packets the latest 10 day(s).
| Time | Temp. | Humidity | Pressure | Rain* | Wind** | Luminosity | Snow |
|---|---|---|---|---|---|---|---|
| 1777879594 | 15° C | 88% | 1019.8 hPa | 0 mm | - | - | - |
| 1777877794 | 15.56° C | 86% | 1019.9 hPa | 0 mm | - | - | - |
| 1777875994 | 15.56° C | 84% | 1020.3 hPa | 0 mm | - | - | - |
| 1777874196 | 15.56° C | 83% | 1020.6 hPa | 0 mm | - | - | - |
| 1777872394 | 15.56° C | 82% | 1020.9 hPa | 0 mm | - | - | - |
| 1777870594 | 16.11° C | 81% | 1021.1 hPa | 0 mm | - | - | - |
| 1777868796 | 16.67° C | 81% | 1021.3 hPa | 0 mm | - | - | - |
| 1777866994 | 17.22° C | 83% | 1020.9 hPa | 0 mm | - | - | - |
| 1777865196 | 17.22° C | 80% | 1021.1 hPa | 0 mm | - | - | - |
| 1777863395 | 17.78° C | 76% | 1020.9 hPa | 0 mm | - | - | - |
| 1777861596 | 18.33° C | 70% | 1020.6 hPa | 0 mm | - | - | - |
| 1777859795 | 19.44° C | 67% | 1020.3 hPa | 0 mm | - | - | - |
| 1777856194 | 21.67° C | 51% | 1019.9 hPa | 0 mm | - | - | - |
| 1777854396 | 23.33° C | 46% | 1019.7 hPa | 0 mm | - | - | - |
| 1777852595 | 26.67° C | 41% | 1019.7 hPa | 0 mm | - | - | - |
| 1777850797 | 27.22° C | 40% | 1020 hPa | 0 mm | - | - | - |
| 1777848994 | 27.78° C | 39% | 1020.1 hPa | 0 mm | - | - | - |
| 1777847194 | 28.33° C | 38% | 1020.2 hPa | 0 mm | - | - | - |
| 1777845394 | 27.22° C | 38% | 1020.6 hPa | 0 mm | - | - | - |
| 1777843595 | 27.22° C | 37% | 1021 hPa | 0 mm | - | - | - |
| 1777841794 | 27.22° C | 37% | 1021.4 hPa | 0 mm | - | - | - |
| 1777839994 | 28.33° C | 36% | 1022 hPa | 0 mm | - | - | - |
| 1777838194 | 27.78° C | 36% | 1022.2 hPa | 0 mm | - | - | - |
| 1777836394 | 27.22° C | 38% | 1022.8 hPa | 0 mm | - | - | - |
| 1777832797 | 26.67° C | 37% | 1023.2 hPa | 0 mm | - | - | - |
* Rain latest hour (hover to see other rain measurements)
** Current wind speed in m/s (hover to see current wind gust speed)